createdAt,value
2022-07-27T00:01:06.904Z,744.83
2022-07-27T00:03:34.597Z,876.47
2022-07-27T00:06:02.166Z,865.92
2022-07-27T00:08:30.050Z,930.85
2022-07-27T00:10:57.678Z,866.00
2022-07-27T00:13:25.425Z,951.90
2022-07-27T00:15:54.041Z,897.13
2022-07-27T00:18:21.803Z,778.35
2022-07-27T00:20:49.276Z,736.92
2022-07-27T00:23:16.953Z,705.95
2022-07-27T00:25:44.358Z,877.40
2022-07-27T00:28:12.987Z,915.90
2022-07-27T00:30:40.626Z,849.65
2022-07-27T00:33:11.203Z,943.75
2022-07-27T00:35:45.873Z,960.90
2022-07-27T00:38:16.718Z,896.70
2022-07-27T00:40:44.323Z,737.70
2022-07-27T00:43:11.720Z,701.08
2022-07-27T00:45:39.427Z,736.40
2022-07-27T00:48:07.956Z,869.92
2022-07-27T00:50:37.317Z,860.05
2022-07-27T00:53:05.362Z,900.58
2022-07-27T00:55:34.022Z,847.42
2022-07-27T00:58:02.579Z,819.67
2022-07-27T01:00:32.157Z,824.50
2022-07-27T01:02:59.630Z,842.33
2022-07-27T01:05:36.624Z,896.33
2022-07-27T01:08:12.894Z,944.60
2022-07-27T01:10:41.686Z,902.22
2022-07-27T01:13:12.749Z,802.72
2022-07-27T01:15:42.844Z,785.20
2022-07-27T01:18:27.203Z,792.05
2022-07-27T01:20:55.549Z,812.35
2022-07-27T01:23:24.654Z,900.13
2022-07-27T01:25:52.201Z,936.97
2022-07-27T01:28:19.640Z,892.00
2022-07-27T01:30:47.450Z,919.00
2022-07-27T01:33:14.936Z,786.20
2022-07-27T01:35:42.475Z,805.20
2022-07-27T01:38:11.136Z,734.10
2022-07-27T01:40:43.940Z,682.25
2022-07-27T01:43:11.755Z,705.30
2022-07-27T01:45:40.344Z,717.13
2022-07-27T01:48:08.116Z,843.67
2022-07-27T01:50:35.720Z,831.83
2022-07-27T01:53:03.317Z,853.05
2022-07-27T01:55:36.986Z,856.75
2022-07-27T01:58:07.739Z,843.05
2022-07-27T02:00:35.600Z,844.08
2022-07-27T02:03:04.645Z,830.05
2022-07-27T02:05:32.194Z,852.88
2022-07-27T02:07:59.785Z,846.55
2022-07-27T02:10:27.680Z,872.90
2022-07-27T02:12:55.215Z,827.88
2022-07-27T02:15:25.536Z,871.97
2022-07-27T02:17:55.702Z,833.55
2022-07-27T02:20:25.053Z,813.50
2022-07-27T02:22:52.843Z,772.88
2022-07-27T02:25:20.692Z,796.80
2022-07-27T02:27:49.095Z,771.45
2022-07-27T02:30:17.656Z,721.22
2022-07-27T02:32:45.683Z,774.95
2022-07-27T02:35:19.747Z,830.80
2022-07-27T02:37:49.296Z,774.67
2022-07-27T02:40:18.223Z,734.88
2022-07-27T02:42:47.301Z,784.47
2022-07-27T02:45:15.512Z,833.30
2022-07-27T02:47:44.086Z,815.60
2022-07-27T02:50:12.025Z,676.70
2022-07-27T02:52:39.793Z,703.22
2022-07-27T02:55:07.951Z,698.25
2022-07-27T02:57:38.004Z,729.50
2022-07-27T03:00:08.787Z,729.90
2022-07-27T03:02:37.419Z,771.05
2022-07-27T03:05:06.367Z,774.17
2022-07-27T03:07:34.128Z,684.03
2022-07-27T03:10:01.584Z,674.13
2022-07-27T03:12:29.456Z,681.38
2022-07-27T03:14:59.049Z,778.40
2022-07-27T03:17:27.294Z,689.17
2022-07-27T03:19:54.792Z,769.58
2022-07-27T03:22:22.395Z,858.58
2022-07-27T03:24:52.211Z,767.75
2022-07-27T03:27:19.661Z,732.78
2022-07-27T03:29:47.368Z,784.83
2022-07-27T03:32:14.872Z,770.00
2022-07-27T03:34:42.236Z,807.83
2022-07-27T03:37:09.697Z,869.63
2022-07-27T03:39:37.167Z,884.10
2022-07-27T03:42:04.911Z,820.90
2022-07-27T03:44:32.824Z,801.40
2022-07-27T03:47:00.244Z,793.80
2022-07-27T03:49:27.689Z,809.33
2022-07-27T03:51:55.209Z,847.42
2022-07-27T03:54:22.896Z,897.67
2022-07-27T03:56:50.335Z,922.40
2022-07-27T03:59:19.213Z,923.78
2022-07-27T04:01:47.215Z,861.40
2022-07-27T04:04:14.688Z,858.70
2022-07-27T04:06:42.101Z,829.00
2022-07-27T04:09:09.907Z,829.63
2022-07-27T04:11:43.355Z,746.05
2022-07-27T04:14:21.068Z,739.90
2022-07-27T04:16:48.488Z,703.85
2022-07-27T04:19:16.330Z,713.13
2022-07-27T04:21:45.303Z,697.92
2022-07-27T04:24:12.818Z,825.97
2022-07-27T04:26:40.227Z,804.92
2022-07-27T04:29:07.758Z,937.05
2022-07-27T04:31:35.364Z,954.28
2022-07-27T04:34:02.839Z,1009.92
2022-07-27T04:36:30.636Z,995.28
2022-07-27T04:39:00.058Z,921.88
2022-07-27T04:41:30.314Z,1038.88
2022-07-27T04:43:59.193Z,1076.45
2022-07-27T04:46:30.058Z,1017.90
2022-07-27T04:49:01.022Z,952.00
2022-07-27T04:51:34.111Z,1029.32
2022-07-27T04:54:03.366Z,988.65
2022-07-27T04:56:30.981Z,968.88
2022-07-27T04:58:58.485Z,970.22
2022-07-27T05:01:35.012Z,977.25
2022-07-27T05:04:04.340Z,978.85
2022-07-27T05:06:33.161Z,1004.75
2022-07-27T05:09:00.852Z,1000.78
2022-07-27T05:11:28.319Z,996.92
2022-07-27T05:13:55.785Z,998.22
2022-07-27T05:16:28.352Z,993.42
2022-07-27T05:18:56.877Z,992.00
2022-07-27T05:21:25.256Z,1026.13
2022-07-27T05:23:52.711Z,1025.63
2022-07-27T05:26:22.431Z,1046.88
2022-07-27T05:28:52.418Z,1070.00
2022-07-27T05:31:19.861Z,1107.47
2022-07-27T05:33:53.371Z,1087.45
2022-07-27T05:36:24.994Z,1080.72
2022-07-27T05:38:52.305Z,1089.15
2022-07-27T05:41:26.410Z,1091.47
2022-07-27T05:43:55.333Z,1082.93
2022-07-27T05:46:23.703Z,1072.68
2022-07-27T05:48:51.522Z,1065.15
2022-07-27T05:51:19.460Z,1049.70
2022-07-27T05:53:46.924Z,1031.97
2022-07-27T05:56:17.304Z,1027.15
2022-07-27T06:01:15.130Z,1016.88
2022-07-27T06:03:42.999Z,1010.88
2022-07-27T06:06:29.692Z,998.10
2022-07-27T06:08:57.986Z,979.35
2022-07-27T06:11:25.574Z,1012.50
2022-07-27T06:13:56.206Z,1022.70
2022-07-27T06:16:24.310Z,1045.85
2022-07-27T06:18:54.529Z,1083.30
2022-07-27T06:21:24.618Z,1047.97
2022-07-27T06:23:53.253Z,1081.97
2022-07-27T06:26:21.363Z,1105.35
2022-07-27T06:28:48.961Z,1126.97
2022-07-27T06:31:16.484Z,1135.55
2022-07-27T06:33:48.235Z,1126.55
2022-07-27T06:36:18.538Z,1137.47
2022-07-27T06:38:45.886Z,1161.72
2022-07-27T06:41:13.675Z,1179.35
2022-07-27T06:43:41.159Z,1166.53
2022-07-27T06:46:12.907Z,1176.90
2022-07-27T06:48:41.505Z,1186.50
2022-07-27T06:51:09.779Z,1184.65
2022-07-27T06:53:37.555Z,1197.32
2022-07-27T06:56:05.469Z,1218.65
2022-07-27T06:58:33.728Z,1210.32
2022-07-27T07:01:02.585Z,1222.88
2022-07-27T07:03:30.528Z,1212.07
2022-07-27T07:05:58.251Z,1228.75
2022-07-27T07:08:26.053Z,1242.93
2022-07-27T07:10:53.901Z,1207.65
2022-07-27T07:13:21.471Z,1196.32
2022-07-27T07:15:48.901Z,1192.78
2022-07-27T07:18:16.424Z,1176.80
2022-07-27T07:20:43.913Z,1157.65
2022-07-27T07:23:12.230Z,1142.20
2022-07-27T07:25:41.065Z,1133.35
2022-07-27T07:28:08.829Z,1128.45
2022-07-27T07:30:37.772Z,1109.32
2022-07-27T07:33:05.777Z,1110.10
2022-07-27T07:35:33.403Z,1098.20
2022-07-27T07:38:03.877Z,1023.58
2022-07-27T07:40:46.755Z,1043.95
2022-07-27T07:45:50.690Z,1057.15
2022-07-27T07:48:19.893Z,1064.75
2022-07-27T07:50:51.817Z,1054.63
2022-07-27T07:53:22.217Z,1069.90
2022-07-27T07:55:49.714Z,1064.95
2022-07-27T07:58:17.163Z,1054.07
2022-07-27T08:00:45.252Z,1059.28
2022-07-27T08:03:12.772Z,1044.30
2022-07-27T08:05:40.267Z,997.55
2022-07-27T08:08:09.996Z,1034.63
2022-07-27T08:10:37.806Z,1050.03
2022-07-27T08:13:08.859Z,1057.53
2022-07-27T08:15:36.680Z,1063.85
2022-07-27T08:18:07.634Z,980.42
2022-07-27T08:20:35.347Z,1060.78
2022-07-27T08:23:03.373Z,1045.53
2022-07-27T08:25:31.416Z,1056.60
2022-07-27T08:27:59.678Z,1057.53
2022-07-27T08:30:27.486Z,1045.55
2022-07-27T08:33:00.088Z,1047.55
2022-07-27T08:35:32.071Z,1021.13
2022-07-27T08:38:01.617Z,1035.82
2022-07-27T08:40:40.448Z,1030.18
2022-07-27T08:43:10.360Z,998.65
2022-07-27T08:45:38.443Z,946.45
2022-07-27T08:48:06.565Z,944.83
2022-07-27T08:50:35.585Z,949.70
2022-07-27T08:53:08.655Z,971.33
2022-07-27T08:55:38.620Z,994.85
2022-07-27T08:58:07.402Z,1045.72
2022-07-27T09:00:36.216Z,1064.70
2022-07-27T09:03:04.307Z,993.78
2022-07-27T09:05:36.923Z,1013.35
2022-07-27T09:08:21.829Z,1046.10
2022-07-27T09:10:49.304Z,1064.13
2022-07-27T09:13:20.129Z,1076.55
2022-07-27T09:16:16.378Z,1088.45
2022-07-27T09:18:39.304Z,1099.15
2022-07-27T09:21:21.211Z,1103.30
2022-07-27T09:23:52.115Z,1095.00
2022-07-27T09:26:33.208Z,1082.65
2022-07-27T09:29:07.049Z,1069.13
2022-07-27T09:31:42.912Z,1056.80
2022-07-27T09:34:11.998Z,1030.60
2022-07-27T09:36:57.497Z,1009.05
2022-07-27T09:39:26.667Z,1032.07
2022-07-27T09:41:58.463Z,1013.35
2022-07-27T09:44:43.201Z,1123.55
2022-07-27T09:47:26.725Z,1040.10
2022-07-27T09:49:58.166Z,1163.50
2022-07-27T09:52:27.511Z,1158.40
2022-07-27T09:54:55.304Z,1127.88
2022-07-27T09:57:22.912Z,1137.47
2022-07-27T10:00:10.820Z,1140.80
2022-07-27T10:02:39.726Z,1148.97
2022-07-27T10:05:07.838Z,1270.22
2022-07-27T10:07:35.670Z,1289.65
2022-07-27T10:10:04.532Z,1191.47
2022-07-27T10:12:32.489Z,1156.05
2022-07-27T10:14:59.852Z,1135.82
2022-07-27T10:17:27.769Z,1141.78
2022-07-27T10:19:58.295Z,1185.35
2022-07-27T10:22:50.414Z,1158.75
2022-07-27T10:25:17.922Z,1179.13
2022-07-27T10:28:08.218Z,1170.80
2022-07-27T10:30:36.222Z,1132.88
2022-07-27T10:33:16.892Z,1189.68
2022-07-27T10:35:44.826Z,1173.05
2022-07-27T10:38:15.724Z,1202.28
2022-07-27T10:40:44.377Z,1194.78
2022-07-27T10:43:20.760Z,1216.90
2022-07-27T10:46:01.918Z,1205.40
2022-07-27T10:48:48.542Z,1211.63
2022-07-27T10:51:17.394Z,1206.70
2022-07-27T10:56:47.805Z,1163.07
2022-07-27T10:59:58.183Z,1148.53
2022-07-27T11:02:41.015Z,779.70
2022-07-27T11:05:57.982Z,1163.18
2022-07-27T11:10:48.978Z,922.40
2022-07-27T11:13:20.614Z,1225.70
2022-07-27T11:16:21.225Z,1098.73
2022-07-27T11:19:05.743Z,1128.20
2022-07-27T11:21:38.839Z,1145.28
2022-07-27T11:24:15.138Z,1183.57
2022-07-27T11:26:45.549Z,1234.93
2022-07-27T11:29:15.368Z,1216.97
2022-07-27T11:31:55.270Z,1168.55
2022-07-27T11:34:36.219Z,1201.90
2022-07-27T11:37:12.057Z,1153.05
2022-07-27T11:40:00.521Z,1116.30
2022-07-27T11:42:40.416Z,1107.43
2022-07-27T11:45:08.277Z,1106.00
2022-07-27T11:47:37.198Z,1112.85
2022-07-27T11:50:09.144Z,1097.43
2022-07-27T11:52:36.914Z,1119.18
2022-07-27T11:55:04.722Z,1106.00
2022-07-27T11:57:33.281Z,1100.32
2022-07-27T12:00:00.765Z,1107.50
2022-07-27T12:02:28.269Z,1122.60
2022-07-27T12:05:02.368Z,1133.07
2022-07-27T12:07:35.637Z,1150.93
2022-07-27T12:10:09.458Z,1138.57
2022-07-27T12:12:38.033Z,1162.65
2022-07-27T12:15:44.267Z,1160.03
2022-07-27T12:18:06.936Z,1161.40
2022-07-27T12:20:35.941Z,1172.45
2022-07-27T12:23:08.589Z,1159.85
2022-07-27T12:25:39.176Z,1176.78
2022-07-27T12:28:17.983Z,1178.05
2022-07-27T12:30:51.855Z,1168.28
2022-07-27T12:33:37.432Z,1194.53
2022-07-27T12:36:08.155Z,1172.75
2022-07-27T12:38:48.932Z,1167.32
2022-07-27T12:41:30.987Z,1177.75
2022-07-27T12:44:18.659Z,1189.25
2022-07-27T12:47:02.326Z,1200.57
2022-07-27T12:49:40.823Z,1191.25
2022-07-27T12:52:12.727Z,1193.60
2022-07-27T12:54:40.241Z,1003.17
2022-07-27T12:57:08.036Z,1189.07
2022-07-27T12:59:35.815Z,1044.35
2022-07-27T13:02:03.635Z,1169.45
2022-07-27T13:04:38.532Z,1143.00
2022-07-27T13:07:08.541Z,1162.20
2022-07-27T13:10:02.060Z,1144.20
2022-07-27T13:12:25.523Z,1147.38
2022-07-27T13:14:55.425Z,1183.22
2022-07-27T13:17:23.128Z,1168.75
2022-07-27T13:19:50.857Z,1175.05
2022-07-27T13:22:18.360Z,1139.68
2022-07-27T13:24:46.206Z,1162.38
2022-07-27T13:27:13.834Z,1156.55
2022-07-27T13:29:41.332Z,1145.82
2022-07-27T13:32:08.857Z,1140.13
2022-07-27T13:34:36.477Z,1118.55
2022-07-27T13:37:07.033Z,1113.05
2022-07-27T13:39:34.581Z,1108.97
2022-07-27T13:42:02.048Z,1100.70
2022-07-27T13:44:59.279Z,1092.57
2022-07-27T13:47:17.125Z,1090.57
2022-07-27T13:49:44.514Z,1082.15
2022-07-27T13:52:15.121Z,1087.75
2022-07-27T13:54:42.713Z,1097.15
2022-07-27T13:57:10.211Z,1100.95
2022-07-27T13:59:37.826Z,1098.70
2022-07-27T14:02:05.611Z,1091.88
2022-07-27T14:04:36.385Z,1099.25
2022-07-27T14:07:07.195Z,1093.93
2022-07-27T14:09:53.017Z,1091.50
2022-07-27T14:12:21.155Z,1090.43
2022-07-27T14:14:48.540Z,1089.28
2022-07-27T14:17:18.661Z,1078.55
2022-07-27T14:19:46.177Z,1075.47
2022-07-27T14:22:13.698Z,1073.32
2022-07-27T14:24:44.293Z,1078.25
2022-07-27T14:27:11.851Z,1079.68
2022-07-27T14:29:39.344Z,1076.88
2022-07-27T14:32:07.406Z,1075.40
2022-07-27T14:34:34.983Z,1073.25
2022-07-27T14:37:02.646Z,1070.38
2022-07-27T14:39:31.999Z,1074.45
2022-07-27T14:42:01.199Z,1064.38
2022-07-27T14:44:28.999Z,1069.07
2022-07-27T14:46:56.683Z,1070.43
2022-07-27T14:49:27.563Z,1067.35
2022-07-27T14:51:55.137Z,1071.20
2022-07-27T14:54:22.884Z,1070.07
2022-07-27T14:56:50.511Z,1075.10
2022-07-27T14:59:24.158Z,1074.78
2022-07-27T15:01:52.017Z,1072.57
2022-07-27T15:04:19.856Z,1073.13
2022-07-27T15:06:47.342Z,1074.60
2022-07-27T15:09:15.203Z,1064.03
2022-07-27T15:11:43.100Z,1071.53
2022-07-27T15:14:13.212Z,1069.22
2022-07-27T15:16:40.894Z,1061.40
2022-07-27T15:19:08.386Z,1057.88
2022-07-27T15:21:35.882Z,1062.65
2022-07-27T15:24:03.287Z,1051.88
2022-07-27T15:26:30.749Z,1037.10
2022-07-27T15:28:59.205Z,1039.60
2022-07-27T15:31:28.307Z,1035.20
2022-07-27T15:33:56.047Z,1030.07
2022-07-27T15:36:32.419Z,1024.95
2022-07-27T15:39:07.327Z,1014.40
2022-07-27T15:41:37.235Z,1019.28
2022-07-27T15:44:05.237Z,1005.60
2022-07-27T15:46:35.656Z,1005.67
2022-07-27T15:49:03.783Z,1006.03
2022-07-27T15:51:32.619Z,1002.13
2022-07-27T15:54:00.091Z,999.72
2022-07-27T15:56:27.925Z,994.53
2022-07-27T15:58:55.415Z,1008.63
2022-07-27T16:01:22.767Z,996.88
2022-07-27T16:04:04.487Z,992.50
2022-07-27T16:06:38.397Z,996.95
2022-07-27T16:09:07.023Z,986.90
2022-07-27T16:11:34.478Z,981.45
2022-07-27T16:14:01.933Z,977.10
2022-07-27T16:16:32.055Z,987.92
2022-07-27T16:19:13.633Z,979.70
2022-07-27T16:21:54.860Z,968.95
2022-07-27T16:24:26.571Z,982.25
2022-07-27T16:26:54.589Z,969.78
2022-07-27T16:29:22.818Z,967.63
2022-07-27T16:31:50.475Z,973.38
2022-07-27T16:34:17.943Z,967.15
2022-07-27T16:36:45.366Z,952.75
2022-07-27T16:39:13.118Z,965.40
2022-07-27T16:41:40.845Z,958.85
2022-07-27T16:44:08.295Z,964.60
2022-07-27T16:46:38.468Z,965.05
2022-07-27T16:49:06.059Z,951.35
2022-07-27T16:51:33.608Z,944.83
2022-07-27T16:54:01.212Z,959.72
2022-07-27T16:56:28.913Z,962.05
2022-07-27T16:58:56.398Z,969.53
2022-07-27T17:01:26.794Z,960.05
2022-07-27T17:03:56.575Z,954.40
2022-07-27T17:06:24.944Z,949.78
2022-07-27T17:08:52.571Z,955.40
2022-07-27T17:11:22.096Z,944.20
2022-07-27T17:13:50.557Z,946.13
2022-07-27T17:16:18.827Z,945.35
2022-07-27T17:18:46.473Z,947.03
2022-07-27T17:21:13.997Z,939.85
2022-07-27T17:23:42.526Z,929.90
2022-07-27T17:26:13.116Z,933.10
2022-07-27T17:28:41.275Z,938.67
2022-07-27T17:31:11.115Z,941.95
2022-07-27T17:33:40.227Z,929.50
2022-07-27T17:36:14.737Z,908.60
2022-07-27T17:38:47.227Z,902.45
2022-07-27T17:41:19.246Z,904.70
2022-07-27T17:43:52.216Z,900.80
2022-07-27T17:46:19.761Z,900.22
2022-07-27T17:48:50.057Z,886.13
2022-07-27T17:51:17.714Z,894.00
2022-07-27T17:53:45.087Z,891.97
2022-07-27T17:56:13.442Z,877.03
2022-07-27T17:58:43.024Z,886.38
2022-07-27T18:01:10.586Z,882.78
2022-07-27T18:03:38.631Z,874.22
2022-07-27T18:06:07.151Z,871.65
2022-07-27T18:08:36.336Z,872.83
2022-07-27T18:11:04.565Z,866.50
2022-07-27T18:13:37.795Z,863.70
2022-07-27T18:16:09.473Z,869.05
2022-07-27T18:18:37.480Z,870.42
2022-07-27T18:21:05.413Z,869.03
2022-07-27T18:23:33.063Z,868.53
2022-07-27T18:26:00.604Z,867.83
2022-07-27T18:28:28.028Z,867.70
2022-07-27T18:30:55.880Z,856.35
2022-07-27T18:33:36.562Z,864.95
2022-07-27T18:36:05.447Z,855.47
2022-07-27T18:38:32.897Z,857.45
2022-07-27T18:41:00.617Z,851.83
2022-07-27T18:43:27.985Z,857.25
2022-07-27T18:45:55.828Z,866.83
2022-07-27T18:48:23.211Z,856.28
2022-07-27T18:50:53.584Z,850.03
2022-07-27T18:53:21.049Z,842.38
2022-07-27T18:55:55.638Z,846.10
2022-07-27T18:58:24.056Z,836.13
2022-07-27T19:00:52.420Z,843.67
2022-07-27T19:03:22.518Z,840.47
2022-07-27T19:05:52.929Z,835.72
2022-07-27T19:08:21.696Z,842.47
2022-07-27T19:10:49.265Z,839.92
2022-07-27T19:13:17.650Z,840.10
2022-07-27T19:15:45.510Z,837.17
2022-07-27T19:18:17.854Z,835.15
2022-07-27T19:20:45.700Z,838.40
2022-07-27T19:23:16.670Z,834.70
2022-07-27T19:25:45.418Z,834.65
2022-07-27T19:28:16.752Z,837.55
2022-07-27T19:30:47.053Z,832.65
2022-07-27T19:33:18.213Z,828.00
2022-07-27T19:35:45.966Z,832.15
2022-07-27T19:38:13.501Z,826.10
2022-07-27T19:40:44.563Z,823.55
2022-07-27T19:43:13.484Z,825.28
2022-07-27T19:45:42.806Z,826.20
2022-07-27T19:48:11.256Z,825.03
2022-07-27T19:50:40.207Z,822.95
2022-07-27T19:53:08.203Z,824.45
2022-07-27T19:55:35.623Z,827.72
2022-07-27T19:58:05.583Z,823.33
2022-07-27T20:00:33.137Z,822.67
2022-07-27T20:03:00.744Z,824.55
2022-07-27T20:05:28.239Z,823.80
2022-07-27T20:07:58.339Z,823.38
2022-07-27T20:10:26.218Z,824.83
2022-07-27T20:12:56.982Z,827.08
2022-07-27T20:15:26.247Z,825.47
2022-07-27T20:17:53.637Z,820.60
2022-07-27T20:20:23.284Z,819.80
2022-07-27T20:22:51.697Z,825.33
2022-07-27T20:25:19.420Z,823.20
2022-07-27T20:27:47.616Z,823.95
2022-07-27T20:30:20.228Z,820.58
2022-07-27T20:32:49.988Z,820.33
2022-07-27T20:35:18.864Z,821.78
2022-07-27T20:37:46.937Z,823.80
2022-07-27T20:40:14.728Z,830.33
2022-07-27T20:42:43.648Z,824.30
2022-07-27T20:45:14.653Z,827.50
2022-07-27T20:47:44.512Z,823.55
2022-07-27T20:50:16.425Z,827.17
2022-07-27T20:52:44.141Z,827.80
2022-07-27T20:55:12.406Z,814.17
2022-07-27T20:57:40.001Z,817.42
2022-07-27T21:00:09.001Z,814.58
2022-07-27T21:02:36.740Z,812.95
2022-07-27T21:05:05.290Z,813.30
2022-07-27T21:07:32.826Z,814.15
2022-07-27T21:10:00.850Z,812.35
2022-07-27T21:12:28.348Z,819.25
2022-07-27T21:14:55.761Z,813.20
2022-07-27T21:17:23.771Z,818.55
2022-07-27T21:19:51.445Z,812.45
2022-07-27T21:22:20.299Z,812.38
2022-07-27T21:24:47.729Z,813.28
2022-07-27T21:27:20.877Z,813.70
2022-07-27T21:29:50.992Z,811.53
2022-07-27T21:32:18.877Z,817.22
2022-07-27T21:34:46.570Z,817.33
2022-07-27T21:37:14.451Z,815.83
2022-07-27T21:39:49.320Z,818.17
2022-07-27T21:42:19.756Z,815.50
2022-07-27T21:44:47.233Z,823.40
2022-07-27T21:47:16.346Z,820.10
2022-07-27T21:49:44.544Z,821.25
2022-07-27T21:52:11.850Z,820.50
2022-07-27T21:54:39.739Z,824.33
2022-07-27T21:57:07.272Z,822.25
2022-07-27T21:59:34.697Z,823.20
2022-07-27T22:02:02.455Z,832.60
2022-07-27T22:04:30.177Z,831.22
2022-07-27T22:06:57.657Z,843.25
2022-07-27T22:09:27.193Z,843.90
2022-07-27T22:11:56.556Z,853.10
2022-07-27T22:14:24.593Z,857.92
2022-07-27T22:16:53.150Z,859.28
2022-07-27T22:19:20.770Z,859.95
2022-07-27T22:21:48.124Z,850.95
2022-07-27T22:24:15.956Z,863.42
2022-07-27T22:26:43.727Z,831.00
2022-07-27T22:29:12.448Z,854.17
2022-07-27T22:31:39.838Z,868.67
2022-07-27T22:34:07.371Z,841.88
2022-07-27T22:36:36.100Z,863.50
2022-07-27T22:39:03.559Z,884.05
2022-07-27T22:41:30.966Z,906.60
2022-07-27T22:43:59.404Z,912.63
2022-07-27T22:46:30.185Z,901.17
2022-07-27T22:48:57.748Z,882.30
2022-07-27T22:51:26.560Z,879.33
2022-07-27T22:54:14.805Z,882.67
2022-07-27T22:56:42.623Z,848.45
2022-07-27T22:59:10.007Z,869.10
2022-07-27T23:01:45.995Z,857.28
2022-07-27T23:04:16.740Z,846.80
2022-07-27T23:06:45.509Z,785.50
2022-07-27T23:09:13.045Z,787.65
2022-07-27T23:11:40.460Z,782.63
2022-07-27T23:14:08.084Z,790.13
2022-07-27T23:16:35.654Z,832.65
2022-07-27T23:19:03.616Z,772.67
2022-07-27T23:21:33.130Z,770.42
2022-07-27T23:24:00.863Z,770.10
2022-07-27T23:26:28.221Z,775.35
2022-07-27T23:28:55.787Z,773.17
2022-07-27T23:31:23.640Z,776.15
2022-07-27T23:33:51.595Z,774.65
2022-07-27T23:36:19.173Z,774.70
2022-07-27T23:38:46.697Z,771.45
2022-07-27T23:41:14.440Z,761.20
2022-07-27T23:43:41.986Z,760.20
2022-07-27T23:46:09.919Z,763.85
2022-07-27T23:48:37.596Z,767.70
2022-07-27T23:51:05.163Z,764.25
2022-07-27T23:53:32.645Z,761.97
2022-07-27T23:56:00.162Z,765.40
2022-07-27T23:58:27.681Z,761.17
